createdAt,value
2018-06-16T00:01:06.346Z,11.33
2018-06-16T00:03:34.751Z,10.77
2018-06-16T00:06:03.234Z,11.37
2018-06-16T00:08:31.653Z,9.20
2018-06-16T00:10:59.904Z,8.63
2018-06-16T00:13:28.360Z,11.80
2018-06-16T00:15:57.078Z,11.60
2018-06-16T00:18:25.495Z,10.47
2018-06-16T00:20:53.886Z,10.43
2018-06-16T00:23:22.346Z,10.33
2018-06-16T00:25:50.749Z,10.23
2018-06-16T00:28:19.276Z,11.67
2018-06-16T00:30:48.052Z,10.93
2018-06-16T00:33:16.476Z,9.93
2018-06-16T00:35:44.890Z,8.27
2018-06-16T00:38:13.285Z,9.23
2018-06-16T00:40:41.692Z,11.77
2018-06-16T00:43:10.145Z,9.20
2018-06-16T00:45:38.549Z,9.70
2018-06-16T00:48:07.292Z,10.77
2018-06-16T00:50:35.692Z,8.57
2018-06-16T00:53:04.115Z,12.63
2018-06-16T00:55:32.549Z,10.70
2018-06-16T00:58:01.751Z,8.77
2018-06-16T01:00:30.410Z,8.00
2018-06-16T01:02:58.816Z,13.03
2018-06-16T01:05:27.232Z,11.23
2018-06-16T01:07:55.672Z,10.20
2018-06-16T01:10:24.074Z,9.37
2018-06-16T01:12:52.481Z,9.67
2018-06-16T01:15:20.969Z,14.17
2018-06-16T01:17:49.444Z,7.83
2018-06-16T01:20:17.910Z,9.47
2018-06-16T01:22:46.307Z,13.73
2018-06-16T01:25:14.696Z,9.20
2018-06-16T01:27:43.146Z,12.43
2018-06-16T01:30:11.566Z,9.50
2018-06-16T01:32:40.037Z,10.47
2018-06-16T01:35:08.436Z,8.73
2018-06-16T01:37:36.854Z,10.33
2018-06-16T01:40:05.478Z,10.10
2018-06-16T01:42:33.887Z,14.50
2018-06-16T01:45:02.293Z,10.77
2018-06-16T01:47:31.741Z,7.73
2018-06-16T01:50:00.164Z,10.13
2018-06-16T01:52:28.600Z,8.03
2018-06-16T01:54:57.067Z,8.40
2018-06-16T01:57:25.657Z,7.13
2018-06-16T01:59:54.045Z,11.70
2018-06-16T02:02:22.453Z,8.33
2018-06-16T02:04:51.522Z,8.97
2018-06-16T02:07:19.932Z,8.20
2018-06-16T02:09:48.354Z,11.57
2018-06-16T02:12:16.739Z,10.03
2018-06-16T02:14:45.177Z,11.70
2018-06-16T02:17:13.611Z,9.17
2018-06-16T02:19:42.079Z,10.90
2018-06-16T02:22:10.537Z,11.27
2018-06-16T02:24:38.962Z,12.07
2018-06-16T02:27:07.797Z,11.60
2018-06-16T02:29:36.183Z,8.73
2018-06-16T02:32:04.588Z,10.93
2018-06-16T02:34:33.077Z,10.90
2018-06-16T02:37:01.512Z,10.10
2018-06-16T02:39:29.953Z,11.30
2018-06-16T02:41:58.367Z,9.37
2018-06-16T02:44:26.799Z,10.53
2018-06-16T02:46:56.448Z,10.07
2018-06-16T02:49:24.917Z,9.10
2018-06-16T02:51:53.310Z,10.50
2018-06-16T02:54:21.724Z,8.43
2018-06-16T02:56:50.234Z,9.73
2018-06-16T02:59:18.665Z,10.90
2018-06-16T03:01:47.120Z,10.13
2018-06-16T03:04:15.553Z,10.27
2018-06-16T03:06:43.984Z,9.33
2018-06-16T03:09:12.414Z,10.87
2018-06-16T03:11:40.824Z,9.63
2018-06-16T03:14:09.239Z,13.00
2018-06-16T03:16:37.661Z,14.57
2018-06-16T03:19:06.118Z,13.30
2018-06-16T03:21:34.545Z,13.27
2018-06-16T03:24:02.945Z,12.40
2018-06-16T03:26:31.480Z,12.17
2018-06-16T03:29:00.581Z,15.67
2018-06-16T03:31:28.992Z,11.20
2018-06-16T03:33:57.409Z,9.93
2018-06-16T03:36:25.885Z,14.87
2018-06-16T03:38:54.281Z,12.13
2018-06-16T03:41:22.885Z,14.90
2018-06-16T03:43:51.905Z,12.13
2018-06-16T03:46:20.309Z,10.10
2018-06-16T03:48:48.729Z,10.83
2018-06-16T03:51:17.186Z,11.83
2018-06-16T03:53:45.592Z,12.23
2018-06-16T03:56:14.046Z,15.03
2018-06-16T03:58:42.436Z,10.73
2018-06-16T04:01:10.899Z,13.23
2018-06-16T04:03:39.530Z,10.97
2018-06-16T04:06:07.964Z,10.70
2018-06-16T04:08:36.434Z,9.57
2018-06-16T04:11:04.850Z,10.20
2018-06-16T04:13:33.252Z,9.77
2018-06-16T04:16:01.937Z,8.73
2018-06-16T04:18:30.328Z,10.20
2018-06-16T04:20:58.777Z,8.83
2018-06-16T04:23:28.084Z,9.67
2018-06-16T04:25:56.477Z,9.93
2018-06-16T04:28:25.892Z,10.30
2018-06-16T04:30:54.628Z,8.43
2018-06-16T04:33:23.082Z,10.50
2018-06-16T04:35:51.501Z,11.73
2018-06-16T04:38:19.940Z,9.97
2018-06-16T04:40:48.373Z,7.10
2018-06-16T04:43:16.452Z,9.27
2018-06-16T04:45:44.945Z,10.93
2018-06-16T04:48:13.327Z,12.03
2018-06-16T04:50:41.859Z,9.80
2018-06-16T04:53:10.284Z,10.53
2018-06-16T04:55:38.787Z,7.87
2018-06-16T04:58:07.321Z,8.93
2018-06-16T05:00:35.708Z,8.97
2018-06-16T05:03:04.130Z,10.03
2018-06-16T05:05:32.548Z,9.77
2018-06-16T05:08:01.011Z,7.27
2018-06-16T05:10:29.461Z,9.80
2018-06-16T05:12:57.891Z,9.00
2018-06-16T05:15:26.326Z,8.27
2018-06-16T05:17:54.734Z,13.03
2018-06-16T05:20:23.123Z,11.17
2018-06-16T05:22:51.601Z,9.43
2018-06-16T05:25:20.048Z,9.53
2018-06-16T05:27:48.525Z,12.47
2018-06-16T05:30:17.265Z,8.60
2018-06-16T05:32:45.709Z,8.07
2018-06-16T05:35:14.269Z,7.63
2018-06-16T05:37:42.721Z,10.63
2018-06-16T05:40:11.185Z,9.83
2018-06-16T05:42:39.344Z,10.13
2018-06-16T05:45:07.969Z,8.37
2018-06-16T05:47:36.432Z,8.60
2018-06-16T05:50:04.906Z,8.93
2018-06-16T05:52:33.356Z,7.90
2018-06-16T05:55:02.037Z,7.83
2018-06-16T05:57:30.510Z,10.67
2018-06-16T05:59:58.981Z,8.13
2018-06-16T06:02:27.423Z,10.53
2018-06-16T06:04:55.921Z,8.60
2018-06-16T06:07:24.560Z,11.50
2018-06-16T06:09:52.659Z,11.83
2018-06-16T06:12:21.085Z,9.97
2018-06-16T06:14:49.534Z,9.97
2018-06-16T06:17:18.150Z,10.97
2018-06-16T06:19:46.602Z,9.90
2018-06-16T06:22:15.025Z,12.47
2018-06-16T06:24:43.721Z,9.83
2018-06-16T06:27:12.261Z,12.30
2018-06-16T06:29:40.732Z,9.57
2018-06-16T06:32:09.203Z,9.43
2018-06-16T06:34:37.586Z,11.57
2018-06-16T06:37:06.091Z,14.30
2018-06-16T06:39:34.545Z,16.10
2018-06-16T06:42:02.933Z,11.30
2018-06-16T06:44:31.238Z,9.37
2018-06-16T06:46:59.793Z,12.67
2018-06-16T06:49:28.236Z,10.73
2018-06-16T06:51:56.677Z,15.10
2018-06-16T06:54:25.119Z,11.30
2018-06-16T06:56:58.773Z,10.60
2018-06-16T06:59:27.214Z,11.67
2018-06-16T07:01:55.666Z,9.73
2018-06-16T07:04:24.063Z,7.60
2018-06-16T07:06:52.590Z,12.13
2018-06-16T07:09:21.057Z,9.40
2018-06-16T07:11:49.506Z,7.20
2018-06-16T07:14:17.952Z,9.50
2018-06-16T07:16:46.687Z,8.67
2018-06-16T07:19:15.101Z,10.33
2018-06-16T07:21:43.643Z,8.17
2018-06-16T07:24:12.132Z,13.00
2018-06-16T07:26:40.551Z,7.23
2018-06-16T07:29:09.295Z,8.77
2018-06-16T07:31:37.828Z,7.90
2018-06-16T07:34:06.261Z,9.20
2018-06-16T07:36:34.803Z,10.40
2018-06-16T07:39:03.393Z,12.60
2018-06-16T07:41:31.875Z,13.27
2018-06-16T07:44:00.364Z,12.40
2018-06-16T07:46:28.930Z,9.83
2018-06-16T07:48:57.510Z,11.22
2018-06-16T07:51:26.304Z,8.60
2018-06-16T07:53:54.878Z,10.82
2018-06-16T07:56:23.589Z,13.40
2018-06-16T07:58:52.049Z,12.28
2018-06-16T08:01:20.548Z,11.25
2018-06-16T08:03:48.944Z,13.18
2018-06-16T08:06:20.049Z,12.28
2018-06-16T08:08:48.498Z,9.60
2018-06-16T08:11:16.883Z,10.98
2018-06-16T08:13:45.296Z,10.93
2018-06-16T08:16:13.781Z,14.85
2018-06-16T08:18:42.189Z,13.80
2018-06-16T08:21:10.634Z,10.13
2018-06-16T08:23:39.341Z,11.75
2018-06-16T08:26:07.968Z,11.93
2018-06-16T08:28:36.451Z,10.88
2018-06-16T08:31:04.883Z,11.88
2018-06-16T08:33:32.970Z,9.85
2018-06-16T08:36:01.405Z,13.70
2018-06-16T08:38:30.108Z,8.15
2018-06-16T08:40:58.497Z,10.72
2018-06-16T08:43:26.978Z,9.80
2018-06-16T08:45:55.398Z,11.10
2018-06-16T08:48:23.856Z,10.25
2018-06-16T08:50:52.268Z,10.53
2018-06-16T08:53:20.761Z,13.03
2018-06-16T08:55:49.216Z,8.75
2018-06-16T08:58:17.652Z,12.68
2018-06-16T09:00:46.071Z,14.65
2018-06-16T09:03:14.486Z,11.43
2018-06-16T09:05:42.930Z,14.28
2018-06-16T09:08:11.424Z,11.65
2018-06-16T09:10:39.881Z,11.25
2018-06-16T09:13:08.302Z,8.48
2018-06-16T09:15:36.825Z,11.28
2018-06-16T09:18:05.689Z,12.88
2018-06-16T09:33:38.567Z,9.45
2018-06-16T09:36:06.964Z,10.30
2018-06-16T09:38:35.488Z,9.70
2018-06-16T09:41:03.888Z,6.97
2018-06-16T09:43:32.350Z,8.13
2018-06-16T09:46:00.781Z,7.62
2018-06-16T09:48:30.030Z,8.98
2018-06-16T09:50:58.561Z,8.08
2018-06-16T09:53:26.984Z,10.05
2018-06-16T09:55:55.419Z,9.13
2018-06-16T09:58:23.828Z,10.63
2018-06-16T10:00:52.300Z,9.18
2018-06-16T10:03:20.861Z,6.87
2018-06-16T10:05:49.238Z,8.63
2018-06-16T10:08:17.708Z,7.45
2018-06-16T10:10:46.179Z,9.90
2018-06-16T10:13:14.580Z,6.03
2018-06-16T10:15:43.042Z,7.75
2018-06-16T10:18:11.466Z,8.13
2018-06-16T10:20:39.603Z,7.30
2018-06-16T10:23:08.060Z,9.05
2018-06-16T10:25:36.534Z,8.28
2018-06-16T10:28:05.064Z,6.65
2018-06-16T10:30:33.488Z,7.25
2018-06-16T10:33:01.937Z,9.98
2018-06-16T10:35:30.331Z,6.93
2018-06-16T10:37:58.757Z,6.72
2018-06-16T10:40:27.280Z,11.10
2018-06-16T10:42:55.676Z,7.40
2018-06-16T10:45:24.224Z,8.13
2018-06-16T10:47:52.612Z,8.53
2018-06-16T10:50:21.096Z,7.60
2018-06-16T10:52:49.532Z,8.53
2018-06-16T10:55:17.995Z,5.65
2018-06-16T10:57:46.440Z,7.95
2018-06-16T11:00:14.917Z,8.88
2018-06-16T11:02:43.677Z,8.93
2018-06-16T11:05:12.080Z,5.72
2018-06-16T11:07:40.518Z,5.35
2018-06-16T11:10:09.231Z,8.38
2018-06-16T11:12:37.651Z,7.30
2018-06-16T11:15:06.339Z,7.92
2018-06-16T11:17:34.800Z,5.33
2018-06-16T11:20:03.292Z,7.90
2018-06-16T11:22:31.738Z,10.40
2018-06-16T11:25:00.770Z,6.53
2018-06-16T11:27:29.479Z,6.03
2018-06-16T11:29:58.066Z,6.97
2018-06-16T11:32:26.460Z,5.15
2018-06-16T11:34:54.877Z,6.53
2018-06-16T11:37:23.338Z,6.53
2018-06-16T11:39:51.801Z,8.53
2018-06-16T11:42:20.235Z,8.80
2018-06-16T11:44:48.680Z,6.17
2018-06-16T11:47:17.098Z,5.27
2018-06-16T11:49:45.584Z,8.13
2018-06-16T11:52:14.302Z,7.23
2018-06-16T11:54:42.782Z,5.60
2018-06-16T11:57:11.306Z,6.43
2018-06-16T11:59:39.751Z,6.90
2018-06-16T12:02:08.204Z,9.70
2018-06-16T12:04:36.740Z,6.20
2018-06-16T12:07:05.399Z,5.23
2018-06-16T12:09:33.835Z,7.07
2018-06-16T12:12:02.302Z,7.07
2018-06-16T12:14:30.723Z,6.10
2018-06-16T12:16:59.177Z,6.17
2018-06-16T12:19:27.622Z,8.90
2018-06-16T12:21:56.010Z,6.57
2018-06-16T12:24:24.412Z,5.70
2018-06-16T12:26:53.938Z,5.33
2018-06-16T12:29:22.371Z,4.77
2018-06-16T12:31:50.805Z,8.27
2018-06-16T12:34:20.946Z,6.27
2018-06-16T12:36:49.391Z,7.27
2018-06-16T12:39:18.019Z,8.60
2018-06-16T12:41:46.445Z,3.73
2018-06-16T12:44:14.869Z,6.27
2018-06-16T12:46:43.381Z,5.07
2018-06-16T12:49:11.787Z,5.60
2018-06-16T12:51:40.278Z,5.07
2018-06-16T12:54:08.730Z,6.67
2018-06-16T12:56:37.488Z,6.80
2018-06-16T12:59:05.973Z,4.67
2018-06-16T13:01:34.374Z,6.20
2018-06-16T13:04:02.791Z,7.40
2018-06-16T13:06:31.223Z,9.50
2018-06-16T13:08:59.687Z,8.17
2018-06-16T13:11:28.142Z,10.33
2018-06-16T13:13:56.967Z,11.03
2018-06-16T13:16:25.417Z,12.87
2018-06-16T13:18:53.867Z,9.97
2018-06-16T13:21:22.376Z,10.33
2018-06-16T13:23:50.781Z,11.80
2018-06-16T13:26:19.222Z,11.43
2018-06-16T13:28:47.677Z,8.67
2018-06-16T13:31:16.073Z,10.43
2018-06-16T13:33:44.762Z,15.10
2018-06-16T13:36:13.412Z,10.30
2018-06-16T13:38:41.924Z,11.43
2018-06-16T13:41:10.377Z,8.67
2018-06-16T13:43:39.533Z,10.87
2018-06-16T13:46:07.989Z,12.27
2018-06-16T13:48:36.601Z,9.40
2018-06-16T13:51:05.137Z,10.80
2018-06-16T13:53:33.886Z,9.90
2018-06-16T13:56:02.288Z,9.93
2018-06-16T13:58:30.809Z,10.67
2018-06-16T14:00:59.320Z,11.83
2018-06-16T14:03:27.757Z,12.23
2018-06-16T14:05:56.844Z,7.93
2018-06-16T14:08:25.355Z,10.23
2018-06-16T14:10:54.084Z,13.10
2018-06-16T14:13:22.534Z,10.77
2018-06-16T14:15:51.884Z,9.00
2018-06-16T14:18:20.338Z,12.27
2018-06-16T14:20:48.797Z,10.40
2018-06-16T14:23:17.452Z,9.53
2018-06-16T14:25:46.045Z,8.70
2018-06-16T14:28:14.445Z,8.57
2018-06-16T14:30:42.910Z,7.87
2018-06-16T14:33:11.312Z,9.67
2018-06-16T14:35:39.713Z,6.13
2018-06-16T14:38:08.333Z,7.20
2018-06-16T14:40:36.729Z,7.60
2018-06-16T14:43:05.264Z,7.33
2018-06-16T14:45:33.783Z,7.93
2018-06-16T14:48:02.332Z,9.27
2018-06-16T14:50:30.945Z,7.43
2018-06-16T14:52:59.659Z,8.37
2018-06-16T14:55:28.112Z,6.40
2018-06-16T14:57:56.491Z,7.67
2018-06-16T15:00:25.433Z,9.33
2018-06-16T15:02:53.927Z,9.37
2018-06-16T15:05:22.350Z,6.53
2018-06-16T15:07:50.797Z,8.87
2018-06-16T15:10:19.193Z,15.87
2018-06-16T15:12:47.777Z,8.60
2018-06-16T15:15:16.239Z,7.53
2018-06-16T15:17:44.882Z,7.17
2018-06-16T15:20:13.594Z,5.97
2018-06-16T15:22:42.025Z,9.90
2018-06-16T15:25:10.700Z,10.13
2018-06-16T15:27:39.117Z,6.93
2018-06-16T15:30:07.776Z,10.00
2018-06-16T15:32:36.260Z,6.40
2018-06-16T15:35:04.805Z,11.40
2018-06-16T15:37:33.236Z,5.30
2018-06-16T15:40:01.630Z,6.30
2018-06-16T15:42:30.112Z,5.63
2018-06-16T15:44:58.500Z,7.30
2018-06-16T15:47:27.032Z,6.77
2018-06-16T15:49:55.469Z,6.93
2018-06-16T15:52:24.199Z,6.60
2018-06-16T15:54:52.664Z,4.70
2018-06-16T15:57:21.080Z,9.33
2018-06-16T15:59:49.496Z,7.67
2018-06-16T16:02:17.994Z,8.50
2018-06-16T16:04:47.282Z,6.37
2018-06-16T16:07:15.700Z,8.17
2018-06-16T16:09:44.129Z,6.67
2018-06-16T16:12:12.600Z,8.13
2018-06-16T16:14:41.137Z,6.10
2018-06-16T16:17:09.629Z,9.20
2018-06-16T16:19:38.126Z,8.93
2018-06-16T16:22:07.676Z,9.33
2018-06-16T16:24:36.385Z,7.30
2018-06-16T16:27:05.032Z,6.57
2018-06-16T16:29:33.450Z,12.77
2018-06-16T16:32:02.124Z,13.23
2018-06-16T16:34:30.586Z,12.17
2018-06-16T16:36:59.072Z,11.30
2018-06-16T16:39:27.509Z,10.83
2018-06-16T16:41:55.992Z,8.77
2018-06-16T16:44:24.729Z,13.10
2018-06-16T16:46:53.324Z,9.57
2018-06-16T16:49:22.631Z,10.33
2018-06-16T16:51:51.138Z,9.90
2018-06-16T16:54:19.557Z,13.53
2018-06-16T16:56:47.978Z,14.00
2018-06-16T16:59:16.472Z,9.17
2018-06-16T17:01:44.913Z,11.00
2018-06-16T17:04:13.368Z,12.40
2018-06-16T17:06:41.799Z,9.17
2018-06-16T17:09:11.470Z,11.70
2018-06-16T17:11:39.964Z,9.77
2018-06-16T17:14:08.521Z,8.43
2018-06-16T17:16:36.987Z,11.60
2018-06-16T17:19:05.658Z,10.83
2018-06-16T17:21:34.093Z,9.20
2018-06-16T17:24:02.516Z,10.07
2018-06-16T17:26:30.957Z,8.80
2018-06-16T17:28:59.573Z,11.13
2018-06-16T17:31:28.104Z,10.83
2018-06-16T17:33:56.537Z,7.80
2018-06-16T17:36:25.010Z,7.57
2018-06-16T17:38:53.674Z,9.20
2018-06-16T17:41:22.159Z,10.70
2018-06-16T17:43:51.756Z,6.60
2018-06-16T17:46:20.578Z,7.27
2018-06-16T17:48:49.477Z,9.33
2018-06-16T17:51:18.577Z,8.40
2018-06-16T17:53:47.149Z,9.17
2018-06-16T17:56:15.597Z,10.57
2018-06-16T17:58:45.434Z,10.50
2018-06-16T18:01:13.833Z,11.30
2018-06-16T18:03:43.604Z,9.47
2018-06-16T18:06:13.757Z,10.10
2018-06-16T18:08:43.575Z,9.13
2018-06-16T18:11:13.633Z,11.70
2018-06-16T18:13:42.192Z,10.30
2018-06-16T18:16:11.696Z,13.07
2018-06-16T18:18:41.685Z,11.47
2018-06-16T18:21:10.417Z,15.57
2018-06-16T18:23:39.852Z,13.33
2018-06-16T18:26:09.653Z,15.27
2018-06-16T18:28:38.105Z,15.33
2018-06-16T18:31:06.553Z,16.47
2018-06-16T18:33:35.027Z,18.00
2018-06-16T18:36:03.469Z,17.80
2018-06-16T18:38:31.882Z,19.10
2018-06-16T18:41:00.610Z,14.53
2018-06-16T18:43:29.013Z,24.13
2018-06-16T18:45:57.613Z,14.73
2018-06-16T18:48:26.045Z,18.27
2018-06-16T18:50:54.461Z,22.20
2018-06-16T18:53:22.925Z,14.90
2018-06-16T18:55:51.432Z,14.37
2018-06-16T18:58:19.861Z,13.77
2018-06-16T19:00:48.611Z,14.57
2018-06-16T19:03:16.987Z,21.97
2018-06-16T19:05:45.505Z,22.17
2018-06-16T19:08:13.922Z,18.27
2018-06-16T19:10:42.427Z,24.13
2018-06-16T19:13:10.892Z,22.80
2018-06-16T19:15:39.323Z,15.73
2018-06-16T19:18:07.851Z,17.33
2018-06-16T19:20:36.404Z,20.83
2018-06-16T19:23:05.290Z,22.57
2018-06-16T19:25:33.632Z,27.13
2018-06-16T19:28:01.748Z,20.17
2018-06-16T19:30:30.164Z,24.40
2018-06-16T19:32:58.624Z,28.63
2018-06-16T19:35:27.110Z,26.73
2018-06-16T19:37:55.533Z,25.23
2018-06-16T19:40:23.965Z,22.77
2018-06-16T19:42:52.425Z,25.70
2018-06-16T19:45:20.863Z,26.43
2018-06-16T19:47:49.357Z,31.20
2018-06-16T19:50:17.787Z,33.03
2018-06-16T19:52:46.247Z,28.17
2018-06-16T19:55:14.739Z,33.53
2018-06-16T19:57:43.217Z,33.97
2018-06-16T20:00:11.794Z,21.60
2018-06-16T20:02:40.221Z,24.23
2018-06-16T20:05:08.651Z,21.40
2018-06-16T20:07:37.101Z,25.73
2018-06-16T20:10:06.223Z,25.17
2018-06-16T20:12:34.685Z,22.33
2018-06-16T20:15:03.162Z,19.93
2018-06-16T20:17:31.737Z,18.00
2018-06-16T20:20:00.154Z,23.27
2018-06-16T20:22:28.595Z,19.07
2018-06-16T20:24:57.835Z,20.10
2018-06-16T20:27:26.123Z,19.77
2018-06-16T20:29:54.690Z,21.03
2018-06-16T20:32:23.118Z,19.10
2018-06-16T20:34:51.550Z,14.53
2018-06-16T20:37:19.710Z,20.50
2018-06-16T20:39:48.128Z,17.77
2018-06-16T20:42:16.559Z,16.73
2018-06-16T20:44:45.152Z,17.80
2018-06-16T20:47:13.595Z,12.03
2018-06-16T20:49:42.189Z,18.40
2018-06-16T20:52:10.654Z,17.73
2018-06-16T20:54:39.074Z,18.27
2018-06-16T20:57:07.568Z,16.77
2018-06-16T20:59:35.958Z,15.90
2018-06-16T21:02:04.556Z,16.57
2018-06-16T21:04:32.972Z,17.50
2018-06-16T21:07:01.484Z,16.43
2018-06-16T21:09:29.995Z,19.00
2018-06-16T21:11:58.490Z,18.27
2018-06-16T21:14:27.007Z,15.73
2018-06-16T21:16:55.565Z,14.23
2018-06-16T21:19:24.030Z,17.60
2018-06-16T21:21:52.509Z,14.87
2018-06-16T21:24:20.925Z,14.10
2018-06-16T21:26:49.725Z,17.47
2018-06-16T21:29:17.877Z,19.10
2018-06-16T21:31:46.300Z,15.10
2018-06-16T21:34:14.779Z,17.20
2018-06-16T21:36:43.330Z,21.03
2018-06-16T21:39:12.010Z,16.17
2018-06-16T21:41:40.662Z,17.97
2018-06-16T21:44:09.111Z,15.57
2018-06-16T21:46:37.585Z,22.97
2018-06-16T21:49:06.176Z,17.47
2018-06-16T21:51:34.569Z,16.87
2018-06-16T21:54:02.975Z,17.60
2018-06-16T21:56:31.510Z,18.67
2018-06-16T21:58:59.917Z,16.10
2018-06-16T22:01:33.327Z,21.43
2018-06-16T22:04:02.433Z,21.30
2018-06-16T22:06:30.942Z,20.23
2018-06-16T22:08:59.758Z,24.30
2018-06-16T22:11:28.189Z,20.10
2018-06-16T22:13:56.625Z,21.23
2018-06-16T22:16:25.073Z,23.53
2018-06-16T22:18:53.477Z,18.57
2018-06-16T22:21:21.908Z,21.83
2018-06-16T22:23:50.343Z,24.13
2018-06-16T22:26:18.782Z,22.47
2018-06-16T22:28:47.235Z,22.90
2018-06-16T22:31:15.676Z,23.97
2018-06-16T22:33:44.210Z,29.47
2018-06-16T22:36:12.640Z,30.13
2018-06-16T22:38:41.060Z,31.23
2018-06-16T22:41:09.502Z,33.73
2018-06-16T22:43:37.908Z,31.43
2018-06-16T22:46:06.592Z,29.47
2018-06-16T22:48:34.990Z,32.57
2018-06-16T22:51:03.389Z,30.67
2018-06-16T22:53:31.920Z,33.47
2018-06-16T22:56:00.357Z,29.33
2018-06-16T22:58:28.862Z,33.03
2018-06-16T23:00:57.305Z,34.23
2018-06-16T23:03:25.783Z,29.70
2018-06-16T23:05:54.224Z,30.37
2018-06-16T23:08:22.650Z,27.60
2018-06-16T23:10:51.115Z,28.87
2018-06-16T23:13:19.593Z,26.47
2018-06-16T23:15:48.237Z,29.20
2018-06-16T23:18:16.678Z,24.03
2018-06-16T23:20:45.743Z,23.00
2018-06-16T23:23:14.290Z,25.27
2018-06-16T23:25:42.708Z,23.83
2018-06-16T23:28:11.154Z,25.00
2018-06-16T23:30:39.640Z,25.20
2018-06-16T23:33:08.039Z,26.40
2018-06-16T23:35:36.428Z,24.47
2018-06-16T23:38:04.856Z,24.50
2018-06-16T23:40:33.273Z,26.13
2018-06-16T23:43:01.763Z,25.40
2018-06-16T23:45:30.274Z,23.97
2018-06-16T23:47:58.820Z,24.40
2018-06-16T23:50:27.216Z,26.87
2018-06-16T23:52:55.940Z,28.63
2018-06-16T23:55:24.352Z,28.10
2018-06-16T23:57:52.788Z,24.47
